Località Giorno Ora Temp. Umid. Relat. Dew Point Press. Atm. Velocità Vento Direz. Vento Precip. Temp.
Min
Temp.
Max
Abano (PD) 19/02/18 02.35 3.8 °C 81 % 0.8 °C 1019.1 hPa 1.6 Km/h NNE 0.0 mm  3.8 °C 4.7 °C
Acquaviva delle Fonti (BA) 19/02/18 02.53 8.0 °C 95 % 7.2 °C 1011.9 hPa 0.0 Km/h SW 0.8 mm  8.0 °C 8.4 °C
Ala (TN) 19/02/18 02.53 4.8 °C 81 % 1.8 °C 1018.7 hPa 0.0 Km/h SW 0.0 mm  4.8 °C 5.0 °C
Alleghe (BL) 19/02/18 02.53 -0.6 °C 69 % -5.6 °C 1001.5 hPa 0.0 Km/h SE 0.0 mm  -0.6 °C 0.2 °C
Alleghe Lago (BL) 19/02/18 02.54 -1.3 °C 88 % -3.0 °C 1015.5 hPa 0.2 Km/h SSE 0.0 mm  -1.3 °C 0.3 °C
Ancona (AN) 19/02/18 02.35 5.5 °C 97 % 5.1 °C 1017.2 hPa 3.2 Km/h W 0.4 mm  5.5 °C 6.1 °C
Arenzano (GE) 19/02/18 02.53 6.3 °C 66 % 0.5 °C 1016.8 hPa 27.4 Km/h NW 0.0 mm  6.2 °C 7.2 °C
Arquà Polesine (RO) 19/02/18 02.53 4.4 °C 82 % 1.6 °C 1020.4 hPa 1.6 Km/h NE 0.2 mm  4.4 °C 5.1 °C
Arzignano loc. Castello (VI) 18/02/18 23.00 4.5 °C 74 % 0.3 °C 1020.6 hPa 0.4 Km/h N 2.6 mm  4.1 °C 6.4 °C
Arzignano Pugnello (VI) 19/02/18 02.33 3.5 °C 72 % -1.1 °C 1018.3 hPa 0.0 Km/h NE 0.0 mm  3.5 °C 4.0 °C
Arzignano San Bortolo (VI) 19/02/18 02.40 4.2 °C 68 % -1.2 °C 1017.5 hPa 9.7 Km/h NNE 0.0 mm  4.2 °C 4.7 °C
Arzignano Tezze (VI) 19/02/18 02.44 4.3 °C 75 % 0.2 °C 1019.5 hPa 3.2 Km/h NNW 0.0 mm  4.3 °C 5.1 °C
Asiago Rifugio Val Formica (VI) 19/02/18 02.41 -5.1 °C 95 % -5.8 °C 1017.8 hPa 0.0 Km/h ESE 0.0 mm  -5.1 °C -4.5 °C
Avenza-Carrara (MS) 19/02/18 02.25 6.6 °C 74 % 2.2 °C 1017.4 hPa 0.0 Km/h --- 0.0 mm  6.4 °C 6.8 °C
Avio (TN) 19/02/18 02.34 5.4 °C 81 % 2.4 °C 1018.5 hPa 0.0 Km/h ENE 0.0 mm  5.4 °C 5.7 °C
Badia Calavena loc. San Valentino (VR) 19/02/18 02.33 -0.6 °C 80 % -3.6 °C 1017.4 hPa 17.7 Km/h ENE 0.0 mm  -0.7 °C -0.5 °C
Barbara (AN) 19/02/18 02.33 4.9 °C 89 % 3.2 °C 1019.5 hPa 14.8 Km/h NNE 1.6 mm  4.9 °C 5.1 °C
Barcellona P.G. Centro (ME) 19/02/18 02.33 10.6 °C 84 % 8.0 °C 1012.8 hPa 0.0 Km/h N 0.0 mm  10.4 °C 10.7 °C
Barcellona Pozzo di Gotto (ME) 19/02/18 02.33 11.1 °C 87 % 9.0 °C 1012.8 hPa 0.0 Km/h SSW 0.0 mm  10.8 °C 11.3 °C
Bardolino (VR) 19/02/18 02.33 5.1 °C 79 % 1.7 °C 1012.5 hPa 8.0 Km/h NNW 0.0 mm  4.9 °C 5.2 °C
Bassano del Grappa (VI) 18/02/18 07.40 4.4 °C 92 % 3.3 °C 1004.7 hPa 0.0 Km/h --- 0.8 mm  4.2 °C 5.8 °C
Bellaria Igea Marina (RN) 19/02/18 02.33 6.8 °C 85 % 4.4 °C 1017.1 hPa 11.3 Km/h E 0.2 mm  6.8 °C 7.3 °C
Bellaria Igea Marina2 (RN) 19/02/18 02.33 6.9 °C 86 % 4.8 °C 1017.0 hPa 16.1 Km/h NE 0.2 mm  6.9 °C 7.4 °C
Bellaria Igea Marina3 (RN) 19/02/18 02.33 6.6 °C 78 % 3.0 °C 1016.2 hPa 25.2 Km/h NNE 0.0 mm  6.6 °C 7.1 °C
Belluno Castion (BL) 19/02/18 02.15 0.4 °C 93 % -0.6 °C 1019.3 hPa 0.0 Km/h --- 0.0 mm  0.2 °C 1.1 °C
Bernate Ticino fraz. Casate (MI) 19/02/18 02.33 3.8 °C 80 % 0.7 °C 1017.5 hPa 0.0 Km/h N 0.0 mm  3.8 °C 4.5 °C
Besenello (TN) 19/02/18 02.33 4.6 °C 80 % 1.4 °C 1019.9 hPa 3.2 Km/h NNE 0.0 mm  4.6 °C 5.7 °C
Besozzo (VA) 18/02/18 21.49 3.9 °C 93 % 2.9 °C 1021.9 hPa 0.0 Km/h --- 1.6 mm  -1.7 °C 7.1 °C
Bientina (PI) 19/02/18 02.33 6.6 °C 65 % 0.5 °C 1015.0 hPa 3.0 Km/h NE 0.0 mm  6.6 °C 7.6 °C
Bisignano (CS) 19/02/18 02.33 9.8 °C 63 % 3.1 °C 1011.6 hPa 0.6 Km/h SE 0.0 mm  9.8 °C 10.3 °C
Bitti (NU) 19/02/18 02.33 4.8 °C 87 % 2.8 °C 1013.2 hPa 0.0 Km/h SSW 0.0 mm  4.7 °C 6.2 °C
Bolognano di Arco (TN) 19/02/18 02.33 5.2 °C 81 % 2.2 °C 1020.4 hPa 6.4 Km/h SSW 0.0 mm  5.2 °C 5.4 °C
Bonorva (SS) 19/02/18 02.35 7.4 °C 92 % 6.2 °C 1013.9 hPa 0.0 Km/h --- 0.0 mm  7.4 °C 7.8 °C
Borgo Valsugana (TN) 19/02/18 02.40 2.2 °C 92 % 1.0 °C 1017.8 hPa 0.0 Km/h SSE 0.0 mm  2.2 °C 2.8 °C
Borgofranco d'Ivrea (TO) 17/02/18 10.54 4.3 °C 85 % 2.0 °C 1026.0 hPa 0.0 Km/h NW 0.0 mm  0.7 °C 4.4 °C
Borore (NU) 19/02/18 02.34 7.7 °C 89 % 6.0 °C 1013.5 hPa 2.4 Km/h WNW 0.0 mm  7.0 °C 7.9 °C
Brebbia (VA) 18/02/18 21.10 4.9 °C 90 % 3.4 °C 1022.5 hPa 0.0 Km/h ESE 1.2 mm  -0.4 °C 8.0 °C
Brendola (VI) 19/02/18 02.32 4.2 °C 87 % 2.2 °C 1005.4 hPa 2.5 Km/h NW 0.0 mm  0.0 °C 4.5 °C
Bresega (PD) 19/02/18 02.33 5.6 °C 70 % 0.6 °C 1019.5 hPa 8.0 Km/h ENE 0.0 mm  5.5 °C 6.2 °C
Brolo c/da Parrazzà (ME) 19/02/18 02.40 11.0 °C 77 % 7.1 °C 1012.8 hPa 0.0 Km/h SE 0.0 mm  10.8 °C 11.3 °C
Brugine2 (PD) 19/02/18 02.28 4.3 °C 90 % 2.8 °C 1020.2 hPa 0.0 Km/h N 0.0 mm  4.3 °C 4.3 °C
Buccheri (SR) 19/02/18 02.33 5.8 °C 68 % 0.3 °C 1007.0 hPa 0.0 Km/h W 0.0 mm  5.6 °C 6.0 °C
Budoia (PN) 19/02/18 02.30 3.2 °C 79 % -0.1 °C 1020.1 hPa 3.2 Km/h NW 2.2 mm  2.8 °C 3.4 °C
Ca' Gallo (PU) 19/02/18 02.44 5.2 °C 95 % 4.5 °C 1012.1 hPa 0.3 Km/h N 1.3 mm  5.2 °C 5.6 °C
Calcinato (BS) 14/02/18 13.17 6.8 °C 53 % -2.1 °C 1017.2 hPa 19.3 Km/h NW 0.0 mm  0.3 °C 7.1 °C
Calliano (TN) 19/02/18 02.33 3.7 °C 84 % 1.2 °C 1019.0 hPa 6.4 Km/h SSE 0.0 mm  3.7 °C 5.2 °C
Caltabellotta (AG) 19/02/18 02.30 6.7 °C 96 % 6.1 °C 1012.8 hPa 8.0 Km/h N 0.2 mm  6.6 °C 7.7 °C
Cammarata (AG) 19/02/18 02.33 7.1 °C 70 % 2.0 °C 1008.6 hPa 0.0 Km/h WSW 0.0 mm  7.1 °C 7.3 °C
Campoformido (UD) 19/02/18 02.33 5.2 °C 57 % -2.7 °C 1020.5 hPa 16.2 Km/h ENE 0.0 mm  5.2 °C 5.4 °C
Camposampiero (PD) 19/02/18 02.39 4.2 °C 66 % -1.6 °C 1017.0 hPa 0.0 Km/h N 0.0 mm  4.2 °C 4.2 °C
Capodimonte (VT) 19/02/18 02.30 6.6 °C 86 % 4.4 °C 1014.5 hPa 3.2 Km/h N 0.0 mm  6.5 °C 7.0 °C
Caprarola Centro Storico (VT) 19/02/18 02.33 4.3 °C 100 % 4.3 °C 1012.0 hPa 2.2 Km/h S 0.0 mm  4.3 °C 6.0 °C
Caprino (VR) 19/02/18 02.33 3.7 °C 92 % 2.5 °C 1018.1 hPa 0.0 Km/h ENE 0.0 mm  3.7 °C 4.0 °C
Carceri (PD) 19/02/18 02.38 4.9 °C 74 % 0.6 °C 1018.8 hPa 14.5 Km/h E 0.0 mm  4.9 °C 5.3 °C
Carmignano loc. Seano (PO) 19/02/18 02.34 6.7 °C 69 % 1.4 °C 1016.3 hPa 7.8 Km/h N 0.0 mm  6.6 °C 6.9 °C
Carpi (MO) 19/02/18 02.33 4.2 °C 86 % 2.0 °C 1019.3 hPa 0.0 Km/h NNE 0.0 mm  4.1 °C 4.2 °C
Cartigliano (VI) 19/02/18 02.33 4.2 °C 71 % -0.6 °C 1019.3 hPa 4.3 Km/h NE 0.0 mm  4.2 °C 4.8 °C
Cartura (PD) 19/02/18 02.33 4.9 °C 71 % 0.1 °C 1019.9 hPa 13.9 Km/h NE 0.0 mm  4.9 °C 5.4 °C
Casotto (VI) 12/02/18 07.55 -573.3 °C 0 % -73.3 °C 1008.4 hPa -1000.0 Km/h N 0.0 mm  -573.3 °C -573.3 °C
Cassano Magnago (VA) 19/02/18 02.43 3.7 °C 86 % 1.6 °C 1020.2 hPa 0.0 Km/h N 0.0 mm  3.7 °C 4.2 °C
Castel d'Azzano (VR) 19/02/18 02.25 4.6 °C 73 % 0.1 °C 999.5 hPa 0.0 Km/h --- 0.0 mm  4.2 °C 4.6 °C
Castelferro (AL) 19/02/18 02.33 3.9 °C 91 % 2.6 °C 1019.8 hPa 11.3 Km/h WNW 0.0 mm  3.8 °C 4.3 °C
Castelfranco Veneto (TV) 19/02/18 02.35 4.1 °C 77 % 0.4 °C 1020.7 hPa 0.0 Km/h --- 0.0 mm  4.0 °C 4.4 °C
Castelgomberto (VI) 17/02/18 13.31 9.7 °C 54 % 0.8 °C 1019.2 hPa 8.7 Km/h SW 0.0 mm  1.5 °C 10.7 °C
Castelnuovo V.C. (PI) 19/02/18 02.33 1.0 °C 98 % 0.8 °C 1014.7 hPa 1.5 Km/h NNW 3.2 mm  1.0 °C 1.6 °C
Castiglione del Lago (PG) 19/02/18 02.30 5.5 °C 78 % 2.0 °C 1016.8 hPa 8.0 Km/h NNE 0.0 mm  5.5 °C 6.0 °C
Cavaria con Premezzo (VA) 19/02/18 02.33 3.9 °C 88 % 2.2 °C 1020.0 hPa 0.0 Km/h NE 0.0 mm  3.9 °C 4.4 °C
Cavazzale (VI) 17/02/18 15.20 10.1 °C 59 % 2.5 °C 1018.8 hPa 0.0 Km/h --- 0.0 mm  0.9 °C 11.1 °C
Cefalù (PA) 19/02/18 01.45 10.9 °C 83 % 8.1 °C 1009.3 hPa 0.0 Km/h ENE 0.0 mm  10.8 °C 10.9 °C
Cerea (VR) 18/02/18 23.15 5.0 °C 73 % 0.6 °C 1021.2 hPa 9.7 Km/h NE 3.0 mm  4.1 °C 7.7 °C
Cerea2 (VR) 19/02/18 02.41 4.0 °C 64 % -2.2 °C 1018.2 hPa 0.0 Km/h N 0.0 mm  4.0 °C 4.9 °C
Cima Grappa (TV) 19/02/18 02.34 -7.9 °C 94 % -8.7 °C 1021.7 hPa 0.0 Km/h NE 0.0 mm  -8.0 °C -6.5 °C
Cismon del Grappa loc. Corlo (VI) 19/02/18 02.34 1.4 °C 90 % -0.1 °C 1019.8 hPa 3.0 Km/h ENE 0.0 mm  1.4 °C 2.1 °C
Cittadella (PD) 18/02/18 21.58 5.8 °C 69 % 0.5 °C 1020.5 hPa 3.7 Km/h SE 1.0 mm  5.3 °C 8.4 °C
Civita Castellana (VT) 19/02/18 02.34 6.3 °C 86 % 4.1 °C 1013.6 hPa 6.5 Km/h NNE 0.0 mm  6.3 °C 6.6 °C
Cogollo del Cengio (VI) 19/02/18 02.32 2.0 °C 99 % 1.9 °C 1017.9 hPa 1.9 Km/h NW 0.0 mm  1.7 °C 2.3 °C
Colle del Piccolo San Bernardo La Thuile (AO) 19/02/18 02.43 -9.3 °C 90 % -10.6 °C 1019.5 hPa 6.4 Km/h E 0.0 mm  -9.4 °C -7.8 °C
Cologna Veneta Sant'Andrea (VR) 19/02/18 02.35 4.1 °C 77 % 0.4 °C 1019.9 hPa 1.6 Km/h E 0.0 mm  4.1 °C 5.1 °C
Colognola ai Colli (VR) 19/02/18 02.35 5.1 °C 66 % -0.7 °C 1020.8 hPa 8.0 Km/h N 0.0 mm  5.1 °C 5.7 °C
Contrada Dosso Gervasio (VR) 19/02/18 02.30 -1.1 °C 87 % -3.3 °C 1017.8 hPa 3.0 Km/h NNW 0.0 mm  -1.4 °C -1.1 °C
Cosseria Lidora (SV) 19/02/18 02.30 3.3 °C 90 % 1.8 °C 1018.8 hPa 9.7 Km/h WNW 0.0 mm  3.3 °C 3.6 °C
Costa di Vittorio Veneto (TV) 19/02/18 02.45 3.3 °C 82 % 0.5 °C 1018.8 hPa 1.4 Km/h ENE 0.0 mm  2.9 °C 3.4 °C
Crespano del Grappa (TV) 17/02/18 14.32 8.9 °C 57 % 0.8 °C 1014.4 hPa 5.6 Km/h SSE 0.0 mm  6.2 °C 9.3 °C
Dorno (PV) 19/02/18 02.34 4.6 °C 89 % 3.0 °C 1020.6 hPa 6.7 Km/h E 0.0 mm  4.6 °C 4.9 °C
Dossobuono (VR) 19/02/18 02.34 4.3 °C 72 % -0.3 °C 1021.3 hPa 3.2 Km/h ESE 0.0 mm  4.2 °C 4.8 °C
Erbezzo Passo Fittanze (VR) 19/02/18 02.45 -3.8 °C 96 % -4.3 °C 1020.5 hPa 0.0 Km/h NW 0.0 mm  -3.9 °C -3.3 °C
Esine (BS) 19/02/18 02.33 3.6 °C 88 % 1.8 °C 1019.0 hPa 0.0 Km/h SSE 0.2 mm  3.6 °C 3.9 °C
Falzè di Piave (TV) 18/02/18 20.43 3.7 °C 78 % 0.2 °C 1022.5 hPa 0.0 Km/h --- 4.4 mm  3.7 °C 8.0 °C
Farra di Soligo (TV) 19/02/18 02.33 3.4 °C 66 % -2.3 °C 1024.3 hPa 0.7 Km/h N 0.0 mm  2.2 °C 3.5 °C
Favaro Veneto (VE) 19/02/18 02.30 5.3 °C 68 % -0.1 °C 1020.1 hPa 14.5 Km/h E 0.0 mm  4.7 °C 5.9 °C
Feltre Celarda (BL) 19/02/18 02.34 0.4 °C 89 % -1.2 °C 1017.3 hPa 0.0 Km/h NNW 0.0 mm  0.4 °C 2.4 °C
Ferrara di M.B. (VR) 19/02/18 02.25 -2.5 °C 96 % -3.1 °C 1015.1 hPa 0.0 Km/h --- 0.0 mm  -2.7 °C -1.8 °C
Filo di Argenta (FE) 19/02/18 02.35 3.4 °C 94 % 2.6 °C 1019.5 hPa 4.3 Km/h NW 1.2 mm  3.4 °C 3.6 °C
Fogliano Redipuglia (GO) 19/02/18 02.44 4.8 °C 48 % -5.3 °C 1020.2 hPa 46.7 Km/h ENE 0.0 mm  4.7 °C 5.4 °C
Foligno (PG) 19/02/18 02.20 7.2 °C 74 % 2.8 °C 1014.0 hPa 17.7 Km/h ENE 0.0 mm  6.9 °C 7.2 °C
Fontanafredda (PN) 19/02/18 02.34 5.1 °C 68 % -0.4 °C 1019.7 hPa 5.8 Km/h NE 0.0 mm  3.9 °C 5.4 °C
Fumane Contrada La Ca (VR) 19/02/18 02.42 2.5 °C 73 % -1.8 °C 1019.2 hPa 3.2 Km/h SW 0.0 mm  2.0 °C 2.6 °C
Gaggiano (MI) 19/02/18 02.34 4.6 °C 85 % 2.3 °C 1020.2 hPa 1.3 Km/h NE 0.0 mm  4.6 °C 4.8 °C
Gallio (VI) 19/02/18 02.40 -2.6 °C 96 % -3.2 °C 1019.9 hPa 0.0 Km/h N 0.0 mm  -2.7 °C -2.6 °C
Gardolo (TN) 19/02/18 02.33 4.4 °C 83 % 1.8 °C 1019.8 hPa 6.8 Km/h NE 0.0 mm  3.9 °C 5.1 °C
Genova Albaro (GE) 19/02/18 02.33 6.5 °C 51 % -2.9 °C 1016.0 hPa 4.1 Km/h N 0.0 mm  6.5 °C 7.3 °C
Genova Erzelli (GE) 19/02/18 02.32 6.5 °C 71 % 1.6 °C 1016.3 hPa 12.9 Km/h N 0.0 mm  6.4 °C 7.0 °C
Gorizia (GO) 19/02/18 02.33 4.1 °C 60 % -3.0 °C 1020.5 hPa 4.7 Km/h N 0.0 mm  4.1 °C 4.7 °C
Gradisca d'Isonzo (GO) 19/02/18 02.34 4.9 °C 59 % -2.5 °C 1021.4 hPa 2.2 Km/h NE 0.0 mm  4.9 °C 5.5 °C
Iglesias (CI) 19/02/18 02.40 10.2 °C 82 % 7.3 °C 1015.5 hPa 0.0 Km/h WNW 0.5 mm  9.6 °C 10.2 °C
Isera loc. Reviano (TN) 19/02/18 02.34 3.2 °C 86 % 1.1 °C 1013.5 hPa 0.0 Km/h W 0.0 mm  3.2 °C 4.4 °C
Isola d'Elba Marina di Campo (LI) 19/02/18 02.30 8.8 °C 76 % 4.8 °C 998.3 hPa 9.7 Km/h NE 0.0 mm  8.7 °C 9.2 °C
Jesolo (VE) 13/02/18 07.30 8.2 °C 32 % -7.5 °C 1009.9 hPa 3.2 Km/h NNE 0.0 mm  5.2 °C 8.2 °C
Lavis (TN) 19/02/18 02.30 4.4 °C 83 % 1.7 °C 1018.7 hPa 4.8 Km/h ESE 0.0 mm  4.4 °C 4.8 °C
Laxolo (BG) 19/02/18 01.58 2.0 °C 99 % 1.9 °C 1013.8 hPa 2.4 Km/h NW 0.7 mm  -1.1 °C 7.3 °C
Lesmo (MB) 19/02/18 02.35 3.2 °C 89 % 1.5 °C 1020.9 hPa 0.0 Km/h --- 0.0 mm  3.2 °C 3.8 °C
Loano (SV) 19/02/18 02.35 9.6 °C 56 % 1.3 °C 1015.9 hPa 27.0 Km/h NNW 0.0 mm  9.6 °C 10.3 °C
Lovere (BG) 19/02/18 02.44 4.3 °C 46 % -6.3 °C 1019.9 hPa 11.6 Km/h WSW 0.0 mm  4.3 °C 4.7 °C
Lugagnano (VR) 19/02/18 02.33 4.8 °C 68 % -0.6 °C 1018.8 hPa 4.8 Km/h S 0.0 mm  4.8 °C 5.9 °C
Lusiana Sciessere (VI) 19/02/18 02.43 -0.8 °C 80 % -3.8 °C 1017.8 hPa 0.0 Km/h ESE 0.0 mm  -0.8 °C -0.2 °C
Malga Malera (VR) 19/02/18 00.55 -5.6 °C  %  °C  hPa 0.0 Km/h 0.0 mm   °C  °C
Malnate San Salvatore (VA) 19/02/18 02.35 2.7 °C 92 % 1.5 °C 1021.6 hPa 0.0 Km/h --- 0.0 mm  2.7 °C 3.2 °C
Marano Vicentino2 (VI) 19/02/18 02.30 3.5 °C 84 % 1.1 °C 1019.2 hPa 0.0 Km/h E 0.0 mm  3.0 °C 3.1 °C
Margone (TN) 19/02/18 02.30 -0.8 °C 97 % -1.2 °C 1021.2 hPa 1.1 Km/h SSW 0.0 mm  -0.8 °C -0.4 °C
Marina di Montemarciano (AN) 19/02/18 02.35 6.7 °C 90 % 5.2 °C 1016.6 hPa 4.8 Km/h NNE 1.4 mm  6.6 °C 6.8 °C
Marostica Valle San Floriano (VI) 19/02/18 02.33 2.6 °C 85 % 0.6 °C 1021.3 hPa 0.0 Km/h W 0.0 mm  2.6 °C 2.9 °C
Marta (VT) 19/02/18 02.35 6.2 °C 84 % 3.7 °C 1011.0 hPa 0.0 Km/h S 0.0 mm  6.1 °C 6.7 °C
Martignano (TN) 19/02/18 02.35 3.3 °C 86 % 1.2 °C 1017.9 hPa 1.6 Km/h SE 0.0 mm  3.3 °C 3.9 °C
Masiera di Bagnacavallo (RA) 19/02/18 02.30 4.5 °C 93 % 3.5 °C 1018.9 hPa 6.0 Km/h NNW 0.7 mm  4.5 °C 4.6 °C
Massarosa (LU) 19/02/18 02.34 7.8 °C 54 % -0.9 °C 1003.1 hPa 2.5 Km/h NE 0.0 mm  7.8 °C 9.0 °C
Massone di Arco (TN) 19/02/18 02.33 5.2 °C 82 % 2.4 °C 1017.9 hPa 4.0 Km/h SSE 0.0 mm  5.1 °C 5.6 °C
Merlara (PD) 19/02/18 02.35 4.2 °C 75 % 0.1 °C 1019.3 hPa 8.0 Km/h ENE 0.0 mm  4.2 °C 4.8 °C
Mezzana Bigli (PV) 19/02/18 02.30 4.5 °C 86 % 2.4 °C 1018.8 hPa 5.8 Km/h NW 0.0 mm  4.5 °C 4.8 °C
Migliarino (FE) 19/02/18 02.50 5.2 °C 85 % 2.9 °C 1018.8 hPa 3.5 Km/h N 0.3 mm  5.2 °C 5.5 °C
Miglionico (MT) 19/02/18 02.40 6.3 °C 89 % 4.6 °C 1011.2 hPa 0.0 Km/h --- 0.6 mm  6.2 °C 6.9 °C
Miola di Piné (TN) 19/02/18 02.50 -0.7 °C 94 % -1.5 °C 1019.7 hPa 1.6 Km/h S 0.0 mm  -0.7 °C -0.2 °C
Mirabella Imbaccari (CT) 19/02/18 02.39 8.7 °C 94 % 7.8 °C 1012.9 hPa 1.9 Km/h NW 1.4 mm  8.7 °C 9.4 °C
Mizzole (VR) 19/02/18 02.47 4.7 °C 65 % -1.3 °C 1009.7 hPa 0.0 Km/h NNW 0.0 mm  4.3 °C 5.6 °C
Molina (VR) 19/02/18 02.48 1.0 °C 78 % -2.4 °C 1009.0 hPa 0.0 Km/h NE 0.0 mm  1.0 °C 1.4 °C
Monasterolo Torinese (TO) 19/02/18 02.35 1.7 °C 91 % 0.4 °C 1018.0 hPa 0.0 Km/h --- 0.5 mm  1.6 °C 2.1 °C
Moneglia loc. Casale (GE) 19/02/18 02.50 5.6 °C 66 % -0.3 °C 1016.6 hPa 11.3 Km/h NE 0.0 mm  5.4 °C 5.7 °C
Moneglia loc. La Secca (GE) 19/02/18 02.50 8.6 °C 58 % 0.8 °C 1015.1 hPa 11.3 Km/h SW 0.0 mm  8.3 °C 8.6 °C
Mongrando San Michele (BI) 19/02/18 02.30 2.0 °C 97 % 1.6 °C 1020.9 hPa 1.6 Km/h NW 0.4 mm  1.9 °C 2.3 °C
Monselice (PD) 19/02/18 02.49 5.5 °C 62 % -1.3 °C 1020.8 hPa 14.8 Km/h E 0.0 mm  5.6 °C 6.0 °C
Montagna in Valtellina (SO) 19/02/18 02.50 4.9 °C 81 % 2.0 °C 1019.4 hPa 0.0 Km/h WSW 0.0 mm  4.9 °C 5.6 °C
Montebello Vicentino loc. Selva (VI) 19/02/18 02.51 4.1 °C 64 % -2.1 °C 1020.0 hPa 14.6 Km/h NNE 0.0 mm  4.1 °C 4.6 °C
Montecchio Maggiore La Valle (VI) 15/02/18 08.29 0.1 °C 1 % -50.0 °C 1017.2 hPa 0.0 Km/h N 0.0 mm  -1.7 °C 0.1 °C
Montecchio Maggiore Sant'Urbano (VI) 19/02/18 02.45 3.4 °C 58 % -4.1 °C 1022.6 hPa 5.0 Km/h W 0.0 mm  3.4 °C 3.8 °C
Monteforte d'Alpone (VR) 19/02/18 02.35 5.1 °C 65 % -0.9 °C 1018.5 hPa 14.5 Km/h ENE 0.0 mm  5.0 °C 5.6 °C
Montelabbate (PU) 19/02/18 02.43 5.9 °C 93 % 4.8 °C 1011.7 hPa 0.0 Km/h SSW 2.0 mm  5.8 °C 6.3 °C
Montespertoli (FI) 19/02/18 00.15 4.3 °C 83 % 1.7 °C 1017.5 hPa 9.5 Km/h NW 9.9 mm  4.3 °C 4.3 °C
Montopoli in val d'Arno Loc. Capanne (PI) 19/02/18 02.48 7.1 °C 71 % 2.2 °C 1015.3 hPa 13.3 Km/h NE 0.8 mm  0.0 °C 0.0 °C
Montorio (VR) 19/02/18 02.46 5.7 °C 59 % -1.7 °C 1022.2 hPa 8.7 Km/h ENE 0.0 mm  5.7 °C 6.2 °C
Montorso Vicentino (VI) 19/02/18 02.50 2.5 °C 76 % -1.3 °C 1019.6 hPa 0.0 Km/h NNW 0.0 mm  2.4 °C 3.1 °C
Morbegno (SO) 19/02/18 02.50 5.3 °C 81 % 2.3 °C 1020.8 hPa 0.0 Km/h WSW 0.0 mm  5.3 °C 5.6 °C
Musigliano (PI) 19/02/18 02.48 9.4 °C 47 % -1.3 °C 1015.0 hPa 7.0 Km/h 0.0 mm  9.4 °C 9.9 °C
Muzzano (BI) 19/02/18 02.10 0.8 °C 95 % 0.1 °C 1020.3 hPa 0.0 Km/h --- 0.4 mm  0.8 °C 1.3 °C
Nichelino (TO) 19/02/18 02.40 4.6 °C 82 % 1.7 °C 1019.9 hPa 11.3 Km/h N 0.0 mm  4.5 °C 5.1 °C
Novara (NO) 19/02/18 01.50 4.3 °C 79 % 1.0 °C 1020.4 hPa 0.0 Km/h NNE 0.0 mm  4.3 °C 4.8 °C
Onara extraurbana (PD) 19/02/18 02.48 4.6 °C 70 % -0.4 °C 1014.9 hPa 0.0 Km/h WNW 0.0 mm  4.3 °C 4.7 °C
Oppeano (VR) 18/02/18 22.20 4.9 °C 72 % 0.3 °C 1017.8 hPa 0.0 Km/h NNE 1.5 mm  4.2 °C 7.5 °C
Oristano (OR) 19/02/18 02.50 9.4 °C 86 % 7.2 °C 1013.2 hPa 0.0 Km/h N 0.0 mm  9.4 °C 10.3 °C
Orosei (NU) 19/02/18 02.36 9.2 °C 74 % 4.8 °C 1013.1 hPa 4.8 Km/h WNW 0.0 mm  9.2 °C 10.2 °C
Ortonovo (SP) 19/02/18 02.50 6.2 °C 54 % -2.4 °C 1009.8 hPa 12.7 Km/h NE 0.0 mm  6.2 °C 6.7 °C
Orvieto (TR) 19/02/18 02.46 5.3 °C 85 % 3.0 °C 1011.3 hPa 0.6 Km/h W 0.0 mm  5.2 °C 5.9 °C
Ostana (CN) 18/02/18 22.36 -3.9 °C 94 % -4.7 °C 1018.7 hPa 1.6 Km/h S 3.3 mm  -9.3 °C 11.8 °C
Ovaro loc. Liariis (UD) 19/02/18 02.25 2.0 °C 60 % -5.0 °C 1022.6 hPa 1.6 Km/h NW 0.0 mm  1.7 °C 2.3 °C
Pace del Mela (ME) 19/02/18 02.50 9.5 °C 76 % 5.5 °C 1013.0 hPa 0.0 Km/h E 0.0 mm  9.5 °C 10.3 °C
Padergnone (TN) 19/02/18 02.45 5.1 °C 86 % 3.0 °C 1019.8 hPa 0.7 Km/h SSE 0.0 mm  5.1 °C 5.4 °C
Parella (TO) 19/02/18 02.46 3.5 °C 88 % 1.7 °C 1019.2 hPa 8.0 Km/h N 0.0 mm  3.4 °C 3.7 °C
Pastrengo (VR) 19/02/18 02.44 4.1 °C 74 % -0.1 °C 1020.9 hPa 0.0 Km/h N 0.0 mm  4.1 °C 4.8 °C
Pastrengo Corné (VR) 19/02/18 02.36 3.9 °C 87 % 1.9 °C 1019.3 hPa 0.0 Km/h ENE 0.0 mm  3.9 °C 4.9 °C
Pecetto Torinese (TO) 19/02/18 02.46 2.8 °C 89 % 1.2 °C 1020.2 hPa 9.7 Km/h NNW 0.0 mm  2.8 °C 3.3 °C
Pedara (CT) 19/02/18 02.42 7.2 °C 69 % 1.9 °C 1008.5 hPa 0.0 Km/h NNW 0.0 mm  6.5 °C 9.0 °C
Pedemonte (VR) 19/02/18 02.35 5.4 °C 65 % -0.7 °C 1019.3 hPa 0.0 Km/h ENE 0.0 mm  5.4 °C 5.8 °C
Perarolo di Arcugnano (VI) 19/02/18 02.53 2.9 °C 73 % -1.5 °C 989.6 hPa 10.4 Km/h NNE 0.0 mm  2.9 °C 3.4 °C
Perugia San Mariano (PG) 19/02/18 02.46 6.2 °C 77 % 2.4 °C 1014.8 hPa 7.9 Km/h SW 0.0 mm  6.1 °C 6.4 °C
Pescantina Are (VR) 19/02/18 02.46 4.7 °C 70 % -0.3 °C 1019.5 hPa 0.0 Km/h E 0.0 mm  4.7 °C 5.6 °C
Pian di Castagné (VR) 19/02/18 02.45 2.8 °C 66 % -2.9 °C 1019.9 hPa 12.9 Km/h NNE 1.0 mm  2.7 °C 3.0 °C
Pian di Castagné2 (VR) 19/02/18 02.46 1.9 °C 69 % -3.2 °C 1018.5 hPa 18.3 Km/h E 0.0 mm  1.9 °C 2.1 °C
Pila Valsesia (VC) 19/02/18 02.35 0.7 °C 93 % -0.3 °C 1017.6 hPa 0.0 Km/h SE 0.2 mm  0.7 °C 1.5 °C
Piovà Massaia (AT) 19/02/18 02.50 3.3 °C 87 % 1.3 °C 1019.3 hPa 1.4 Km/h N 0.0 mm  3.2 °C 3.9 °C
Piraino contr. Fiumara (ME) 19/02/18 02.35 9.8 °C 90 % 8.2 °C 1012.8 hPa 0.0 Km/h NE 0.0 mm  9.7 °C 9.8 °C
Pisa zona I Passi (PI) 19/02/18 02.50 8.7 °C 51 % -0.9 °C 1016.3 hPa 5.4 Km/h NE 0.0 mm  8.7 °C 9.1 °C
Pojana Maggiore Cagnano (VI) 19/02/18 02.49 4.4 °C 64 % -1.8 °C 1019.9 hPa 6.1 Km/h N 0.0 mm  4.3 °C 5.0 °C
Pomezia (RM) 19/02/18 02.50 6.4 °C 89 % 4.8 °C 1011.5 hPa 8.0 Km/h NNW 0.0 mm  6.4 °C 8.4 °C
Ponte San Nicolò (PD) 19/02/18 02.44 5.6 °C 64 % -0.7 °C 1019.5 hPa 8.0 Km/h ENE 0.0 mm  5.6 °C 6.1 °C
Ponte San Pellegrino (MO) 19/02/18 02.48 3.7 °C 81 % 0.7 °C 1022.5 hPa 11.2 Km/h N 0.0 mm  3.5 °C 3.9 °C
Pordenone (PN) 19/02/18 02.30 6.4 °C 54 % -2.2 °C 1020.3 hPa 6.4 Km/h NE 0.0 mm  5.4 °C 6.7 °C
Pozzolo Formigaro (AL) 19/02/18 02.36 2.3 °C 95 % 1.6 °C 1019.2 hPa 0.0 Km/h ESE 0.0 mm  2.3 °C 3.8 °C
Pray (BI) 19/02/18 02.50 1.9 °C 95 % 1.2 °C 1020.3 hPa 3.0 Km/h --- 0.6 mm  1.9 °C 2.7 °C
Reggello (FI) 19/02/18 02.50 4.1 °C 81 % 1.1 °C 1017.4 hPa 11.3 Km/h NNO 0.0 mm  3.2 °C 4.8 °C
Riccione (RN) 15/02/18 16.00 7.2 °C 63 % 0.6 °C 1023.7 hPa 4.8 Km/h ENE 0.3 mm  1.8 °C 8.1 °C
Rifugio Bocca di Selva (VR) 19/02/18 02.50 -4.1 °C 96 % -4.6 °C 1018.0 hPa 22.5 Km/h E 0.0 mm  -4.1 °C -4.1 °C
Rifugio Primaneve (VR) 19/02/18 02.42 -6.1 °C 96 % -6.6 °C 1019.2 hPa 9.7 Km/h N 0.0 mm  -6.1 °C -5.7 °C
Rimini (RN) 19/02/18 02.30 6.4 °C 92 % 5.2 °C 1017.7 hPa 0.0 Km/h NNE 1.8 mm  6.4 °C 6.9 °C
Rimini Zona Palas (RN) 19/02/18 02.40 6.2 °C 96 % 5.6 °C 1018.2 hPa 1.6 Km/h ENE 2.5 mm  6.2 °C 6.5 °C
Rivalta sul Mincio (MN) 19/02/18 02.36 3.9 °C 79 % 0.6 °C 1020.7 hPa 3.9 Km/h ENE 0.0 mm  3.9 °C 5.2 °C
Romano d'Ezzelino Fellette (VI) 19/02/18 02.50 4.6 °C 62 % -2.0 °C 1023.5 hPa 18.0 Km/h NNE 0.0 mm  4.4 °C 5.0 °C
Ronciglione Centro (VT) 19/02/18 02.50 5.0 °C 98 % 4.7 °C 1012.0 hPa 0.0 Km/h WNW 0.0 mm  5.0 °C 6.6 °C
Rosolina (RO) 19/02/18 02.40 5.6 °C 79 % 2.2 °C 1019.9 hPa 9.7 Km/h NE 0.0 mm  5.6 °C 5.8 °C
S. Giovanni Ilarione2 (VR) 19/02/18 02.35 4.6 °C 67 % -1.0 °C 1019.8 hPa 0.0 Km/h NW 0.0 mm  4.4 °C 5.1 °C
S. Giovanni Lupatoto (VR) 19/02/18 02.30 4.8 °C 72 % 0.2 °C 1020.3 hPa 0.0 Km/h E 0.0 mm  4.5 °C 4.8 °C
S. Giovanni Rotondo (FG) 19/02/18 02.35 6.2 °C 90 % 4.7 °C 1012.9 hPa 4.8 Km/h N 0.4 mm  6.2 °C 6.7 °C
S. Lorenzo di Vittorio Veneto (TV) 19/02/18 02.45 3.7 °C 69 % -1.5 °C 1020.4 hPa 3.2 Km/h WNW 0.0 mm  3.4 °C 3.7 °C
S. Lorenzo Nuovo (VT) 19/02/18 02.50 3.5 °C 82 % 0.7 °C 1010.2 hPa 15.1 Km/h NNE 0.0 mm  3.5 °C 3.9 °C
S. Maria di Zevio Loc. 3 Ponti (VR) 19/02/18 02.50 4.6 °C 72 % 0.0 °C 1022.5 hPa 0.0 Km/h E 0.0 mm  4.4 °C 4.8 °C
S. Maria Maddalena (RO) 19/02/18 02.45 4.9 °C 86 % 2.8 °C 1018.6 hPa 11.3 Km/h NNE 0.4 mm  4.8 °C 4.9 °C
S. Martino Lupari (PD) 19/02/18 02.30 4.4 °C 74 % 0.2 °C 1021.0 hPa 0.0 Km/h --- 0.0 mm  4.2 °C 4.6 °C
S. Rocco di Villabalzana (VI) 19/02/18 02.53 3.6 °C 73 % -1.1 °C 1019.5 hPa 6.5 Km/h NE 0.0 mm  3.4 °C 3.6 °C
S. Zeno di Mont. Prada (VR) 19/02/18 02.30 -1.8 °C 96 % -2.4 °C 1019.0 hPa 0.0 Km/h SSW 0.0 mm  -1.8 °C -0.9 °C
Sacile (PN) 19/02/18 02.35 5.3 °C 67 % -0.3 °C 1019.5 hPa 4.8 Km/h NE 0.0 mm  4.9 °C 5.4 °C
Salcedo (VI) 19/02/18 02.51 1.9 °C 68 % -3.4 °C 1017.5 hPa 3.7 Km/h N 0.0 mm  1.9 °C 2.6 °C
San Benedetto del Tronto (AP) 19/02/18 02.31 7.9 °C 91 % 6.5 °C 1015.0 hPa 0.0 Km/h W 1.0 mm  7.9 °C 8.3 °C
San Cataldo (CL) 13/02/18 22.02 3.8 °C 85 % 0.0 °C 1011.9 hPa 0.0 Km/h N 16.1 mm  3.3 °C 8.3 °C
San Giovanni la Punta Trappeto (CT) 19/02/18 02.35 9.7 °C 84 % 7.1 °C 1012.8 hPa 1.6 Km/h NW 0.0 mm  9.6 °C 10.6 °C
San Nazario (VI) 19/02/18 02.41 2.2 °C 72 % -2.3 °C 1019.2 hPa 0.0 Km/h N 0.0 mm  2.2 °C 3.3 °C
San Pietro in Cariano (VR) 19/02/18 02.49 4.0 °C 70 % -1.0 °C 1018.7 hPa 1.3 Km/h NW 0.0 mm  4.0 °C 5.6 °C
San Potito Lugo (RA) 18/02/18 21.00 4.6 °C 94 % 3.7 °C 1025.9 hPa 0.0 Km/h NW 13.8 mm  4.3 °C 5.6 °C
San Salvo3 (CH) 19/02/18 02.51 7.8 °C 90 % 6.3 °C 1011.3 hPa 12.9 Km/h NW 0.6 mm  7.8 °C 8.2 °C
San Vito (CA) 19/02/18 02.50 20.0 °C 55 % 10.7 °C 1006.1 hPa 4.6 Km/h N 0.0 mm  20.0 °C 20.0 °C
San Zeno di Mont. Loc. Castello (VR) 19/02/18 02.49 -0.3 °C 90 % -1.7 °C 1019.5 hPa 2.0 Km/h NNE 0.0 mm  -0.3 °C 0.2 °C
Santa Maria di Negrar (VR) 19/02/18 02.40 5.2 °C 64 % -1.1 °C 1020.2 hPa 2.9 Km/h ENE 0.0 mm  5.2 °C 5.7 °C
Santarcangelo di Romagna (RN) 19/02/18 02.50 8.9 °C 71 % 3.9 °C 1017.6 hPa 0.0 Km/h SSE 0.0 mm  8.9 °C 8.9 °C
Sarcedo (VI) 19/02/18 02.50 4.8 °C 64 % -1.4 °C 1018.9 hPa 0.7 Km/h NNE 0.0 mm  3.9 °C 4.9 °C
Savelli (KR) 16/02/18 08.13 2.0 °C 60 % -5.0 °C 1025.7 hPa 6.1 Km/h W 0.0 mm  -1.8 °C 2.1 °C
Schio (VI) 19/02/18 02.20 3.4 °C 86 % 1.3 °C 1021.7 hPa 1.6 Km/h WNW 0.0 mm  3.4 °C 3.6 °C
Schio Monte Magré (VI) 19/02/18 02.51 2.9 °C 77 % -0.7 °C 0.0 hPa 0.0 Km/h E 0.0 mm  2.2 °C 2.9 °C
Selva di Progno (VR) 19/02/18 02.35 0.8 °C 80 % -2.3 °C 1020.2 hPa 3.2 Km/h NW 0.0 mm  0.4 °C 1.3 °C
Seremange Erzange (Moselle) 19/02/18 02.50 -2.4 °C 97 % -2.8 °C 1024.3 hPa 0.0 Km/h SW 0.0 mm  -3.3 °C -2.6 °C
Sinnai (CA) 18/02/18 23.55 9.2 °C 75 % 5.0 °C 1014.9 hPa 4.8 Km/h N 0.0 mm  8.8 °C 15.2 °C
Soave Borgo Bassano (VR) 19/02/18 02.35 5.7 °C 64 % -0.6 °C 1020.3 hPa 6.0 Km/h NE 0.0 mm  5.7 °C 6.1 °C
Sona Loc. La Colombara (VR) 19/02/18 02.00 5.0 °C 66 % -1.1 °C 1016.9 hPa 2.0 Km/h NW 0.0 mm  4.8 °C 5.6 °C
Soriso (NO) 19/02/18 02.30 2.3 °C 94 % 1.4 °C 1021.3 hPa 0.0 Km/h --- 0.8 mm  2.3 °C 3.2 °C
Staranzano (GO) 18/02/18 17.20 6.3 °C 59 % -1.1 °C 1021.9 hPa 17.7 Km/h NE 9.1 mm  6.3 °C 6.3 °C
Stiore - Monteveglio (BO) 19/02/18 02.50 2.2 °C 96 % 1.7 °C 1016.3 hPa 0.0 Km/h SE 2.0 mm  2.2 °C 3.0 °C
Taio Mollaro (TN) 19/02/18 02.50 1.8 °C 89 % 0.2 °C 1018.9 hPa 0.0 Km/h SSW 0.0 mm  1.8 °C 2.4 °C
Taranto (TA) 19/02/18 02.35 11.1 °C 75 % 6.9 °C 1009.0 hPa 12.2 Km/h NE 0.0 mm  10.8 °C 11.7 °C
Tombolo (PD) 19/02/18 02.51 4.3 °C 71 % -0.5 °C 1020.7 hPa 4.1 Km/h NNE 0.0 mm  4.1 °C 4.4 °C
Torino Regio Parco (TO) 19/02/18 02.49 4.3 °C 91 % 3.0 °C 1022.1 hPa 5.4 Km/h N 0.0 mm  4.3 °C 5.1 °C
Torre Annunziata (NA) 19/02/18 02.35 10.2 °C 88 % 8.3 °C 1012.4 hPa 0.0 Km/h S 0.2 mm  10.1 °C 10.2 °C
Torri (FI) 19/02/18 02.30 3.9 °C 83 % 1.3 °C 1015.1 hPa 3.2 Km/h WNW 0.0 mm  3.2 °C 3.9 °C
Torrita di Siena (SI) 19/02/18 02.30 5.2 °C 88 % 3.3 °C 1015.7 hPa 0.0 Km/h NNW 0.0 mm  5.0 °C 6.0 °C
Tregnago Loc. Centro (VR) 19/02/18 02.35 1.9 °C 73 % -2.4 °C 1013.7 hPa 14.5 Km/h ENE 0.0 mm  1.8 °C 2.0 °C
Trento (TN) 19/02/18 02.51 5.3 °C 78 % 1.8 °C 1018.2 hPa 0.0 Km/h SW 0.0 mm  5.3 °C 6.2 °C
Treviso (TV) 19/02/18 02.49 4.8 °C 56 % -3.2 °C 1019.8 hPa 0.0 Km/h ESE 0.0 mm  4.8 °C 5.3 °C
Tuscania (VT) 18/02/18 18.00 11.1 °C 80 % 7.7 °C 1013.5 hPa 2.6 Km/h E 2.6 mm  8.6 °C 13.4 °C
Val Lastaro (VI) 19/02/18 01.50 -3.4 °C 88 % -5.0 °C 1020.7 hPa 0.0 Km/h E 0.0 mm  -3.4 °C -2.9 °C
Valdagno (VI) 19/02/18 02.51 3.4 °C 61 % -3.4 °C 1011.9 hPa 3.6 Km/h SW 0.0 mm  2.8 °C 3.7 °C
Valdobbiadene San Pietro di Barbozza (TV) 19/02/18 02.35 3.7 °C 66 % -2.1 °C 1019.2 hPa 4.8 Km/h NE 0.0 mm  3.4 °C 3.9 °C
Valentano (VT) 19/02/18 02.50 3.8 °C 88 % 2.2 °C 1011.8 hPa 9.6 Km/h NNE 0.0 mm  3.8 °C 4.1 °C
Valenza (AL) 19/02/18 02.38 3.9 °C 87 % 2.0 °C 1019.5 hPa 4.8 Km/h NE 0.0 mm  3.9 °C 4.6 °C
Valli del Pasubio loc. Gisbenti (VI) 19/02/18 02.51 2.0 °C 83 % -0.6 °C 975.0 hPa 0.0 Km/h --- 0.0 mm  2.0 °C 2.2 °C
Varese Ligure (SP) 19/02/18 02.50 4.5 °C 10 % -24.5 °C 1011.9 hPa 6.0 Km/h NO 0.0 mm  4.4 °C 4.7 °C
Vasto (CH) 18/02/18 20.27 10.0 °C 10 % -20.2 °C 1015.4 hPa 6.1 Km/h WNW 0.0 mm  6.6 °C 11.4 °C
Vattaro fraz. Pian dei Pradi (TN) 19/02/18 02.53 -0.3 °C 87 % -2.2 °C 1020.3 hPa 16.7 Km/h SSW 0.0 mm  -0.3 °C 0.2 °C
Vazzo Roveré Veronese (VR) 19/02/18 02.51 -2.1 °C 81 % -4.9 °C 1017.3 hPa 4.8 Km/h ENE 0.0 mm  -2.2 °C -1.9 °C
Verona Bgo Venezia (iz3sly) (VR) 19/02/18 02.43 4.6 °C 66 % -1.2 °C 1018.5 hPa 0.0 Km/h SSW 0.0 mm  4.5 °C 5.5 °C
Verona Saval (VR) 19/02/18 02.40 5.7 °C 57 % -2.2 °C 1019.5 hPa 4.7 Km/h SW 0.0 mm  5.6 °C 6.1 °C
Vestenanova (VR) 19/02/18 02.50 1.6 °C 58 % -5.8 °C 1022.5 hPa 6.1 Km/h NW 0.0 mm  1.3 °C 1.6 °C
Vicenza Moracchino (VI) 19/02/18 02.51 4.3 °C 69 % -0.8 °C 1019.1 hPa 6.4 Km/h N 0.0 mm  4.1 °C 5.3 °C
Vicenza Pecori Giraldi (VI) 19/02/18 02.40 4.6 °C 84 % 2.1 °C 1028.3 hPa 2.4 Km/h N 0.0 mm  4.5 °C 5.8 °C
Vicenza S. Lazzaro (VI) 19/02/18 02.50 4.5 °C 71 % -0.6 °C 1019.5 hPa 2.0 Km/h NE 0.0 mm  4.5 °C 5.7 °C
Vicenza San Gaetano (VI) 18/02/18 23.08 5.3 °C 76 % 1.4 °C 1021.2 hPa 0.1 Km/h NNE 1.4 mm  4.6 °C 8.1 °C
Vidor (TV) 19/02/18 02.36 3.9 °C 69 % -1.3 °C 1018.6 hPa 4.8 Km/h ENE 0.0 mm  3.2 °C 3.9 °C
Vieste (FG) 19/02/18 02.51 8.7 °C 88 % 6.8 °C 1014.5 hPa 10.2 Km/h W 0.2 mm  8.7 °C 9.4 °C
Vigasio (VR) 19/02/18 02.30 3.9 °C 82 % 1.1 °C 1018.5 hPa 0.0 Km/h --- 0.0 mm  3.9 °C 4.6 °C
Viozene Toria (CN) 19/02/18 02.50 -0.6 °C 53 % -9.0 °C 1018.3 hPa 7.0 Km/h SW 0.0 mm  -0.9 °C -0.2 °C
Viterbo Santa Barbara (VT) 18/02/18 22.23 6.4 °C 91 % 5.0 °C 1013.4 hPa 2.6 Km/h ENE 1.0 mm  6.4 °C 12.0 °C
Viterbo Strada Bagni (VT) 19/02/18 02.51 5.9 °C 86 % 3.9 °C 1011.9 hPa 2.0 Km/h SSE 0.0 mm  5.9 °C 6.1 °C
Vitorchiano Pallone (VT) 18/02/18 18.30 8.7 °C 90 % 7.1 °C 1012.3 hPa 1.6 Km/h ESE 0.5 mm  8.0 °C 11.8 °C
Vittorio Veneto (TV) 19/02/18 00.25 3.4 °C 83 % 0.8 °C 1020.9 hPa 0.0 Km/h NNE 0.0 mm  3.2 °C 3.6 °C
Vittorio Veneto Parco Fenderl (TV) 19/02/18 00.20 2.4 °C 85 % 0.2 °C 1021.6 hPa 0.0 Km/h W 0.0 mm  2.4 °C 2.5 °C
Volpago del Montello (TV) 19/02/18 02.30 2.6 °C 84 % 0.1 °C 1019.8 hPa 0.0 Km/h --- 0.0 mm  2.3 °C 2.8 °C
 
(*) = Precipitazioni nelle ultime 24h.
Dati non aggiornati nell'ultima ora.
   
In collaborazione con: